• Join FlightAware (Why Join?)
  • Login
  • US Flag 
05:56PM EDT


 

Airport Tracker/Info


-or-


 

Live Flight TrackerFlight Track Log ✈ N830QS ✈ 14-Oct-2013 ✈ KGSO - KEWR

Flight Track Log - Related Links

Times and Time Zones

All times are in EDT time to prevent confusion due to time zone crossing. See the N830QS flight status page for this flight to view local times or setup timezone preferences in your user account.

Time Position Orientation Groundspeed Altitude Reporting Facility
EDT Latitude Longitude Course Direction KTS MPH feet Rate Location/Type
01:13PM 36.1522 -79.8803 58° Northeast 205 236 4,600  Level Washington Center
01:15PM 36.2244 -79.7297 59° Northeast 265 305 11,200 3,360 Climbing Washington Center
01:16PM 36.2694 -79.6342 60° Northeast 283 326 14,800 3,240 Climbing Washington Center
01:17PM 36.3075 -79.5536 60° Northeast 297 342 17,700 2,820 Climbing Washington Center
01:18PM 36.4580 -79.5294 58° Northeast  Level Estimated
01:18PM 36.3653 -79.4483 56° Northeast 309 356 20,400  Level Washington Center
01:19PM 36.4283 -79.3661 46° Northeast 323 372 22,500 1,860 Climbing Washington Center
01:20PM 36.4936 -79.2764 48° Northeast 333 383 24,200 1,200 Climbing Washington Center
01:21PM 36.5547 -79.1939 47° Northeast 346 398 25,000 360 Climbing Washington Center
01:22PM 36.6394 -79.0814 47° Northeast 375 432 25,000 540 Level Washington Center
01:23PM 36.7006 -78.9881 51° Northeast 388 447 26,100 1,500 Climbing Washington Center
01:24PM 36.7808 -78.8775 48° Northeast 393 452 28,000 1,620 Climbing Washington Center
01:25PM 36.8544 -78.7769 48° Northeast 393 452 29,300 1,680 Climbing Washington Center
01:26PM 36.9281 -78.6758 48° Northeast 393 452 31,400 1,800 Climbing Washington Center
01:27PM 36.9994 -78.5775 48° Northeast 388 447 33,000 780 Climbing Washington Center
01:28PM 37.0686 -78.4786 49° Northeast 393 452 33,000  Level Washington Center
01:29PM 37.1525 -78.3669 47° Northeast 409 471 33,000  Level Washington Center
01:30PM 37.2444 -78.2686 40° Northeast 420 483 33,000  Level Washington Center
01:31PM 37.3467 -78.1678 38° Northeast 429 494 33,000  Level Washington Center
01:32PM 37.4342 -78.0792 39° Northeast 417 480 33,000  Level Washington Center
01:33PM 37.5214 -77.9903 39° Northeast 412 474 33,000  Level Washington Center
01:34PM 37.6108 -77.8989 39° Northeast 412 474 33,000  Level Washington Center
01:35PM 37.6981 -77.8069 40° Northeast 412 474 33,000  Level Washington Center
01:36PM 37.7894 -77.7125 39° Northeast 412 474 33,000  Level Washington Center
01:37PM 37.8767 -77.6200 40° Northeast 412 474 33,000  Level Washington Center
01:38PM 37.9678 -77.5278 39° Northeast 412 474 33,000  Level Washington Center
01:39PM 38.0547 -77.4350 40° Northeast 412 474 33,000  Level Washington Center
01:40PM 38.1417 -77.3422 40° Northeast 412 474 33,000  Level Washington Center
01:41PM 38.2328 -77.2464 40° Northeast 412 474 33,000  Level Washington Center
01:42PM 38.3236 -77.1506 40° Northeast 417 480 33,000  Level Washington Center
01:43PM 38.4144 -77.0544 40° Northeast 417 480 33,000  Level Washington Center
01:44PM 38.5053 -76.9581 40° Northeast 417 480 33,000  Level Washington Center
01:45PM 38.5961 -76.8614 40° Northeast 417 480 33,000  Level Washington Center
01:46PM 38.6844 -76.7672 40° Northeast 417 480 33,000  Level Washington Center
01:47PM 38.7731 -76.6647 42° Northeast 417 480 33,000  Level Washington Center
01:48PM 38.8594 -76.5647 42° Northeast 417 480 33,000  Level Washington Center
01:49PM 38.9478 -76.4644 41° Northeast 417 480 33,000 -60 Level Washington Center
01:50PM 39.0339 -76.3667 41° Northeast 417 480 32,900 -1,200 Descending Washington Center
01:51PM 39.1200 -76.2631 43° Northeast 417 480 30,700 -2,220 Descending Washington Center
01:52PM 39.2017 -76.1675 42° Northeast 411 473 28,600 -1,920 Descending Washington Center
01:53PM 39.2792 -76.0850 39° Northeast 406 467 27,000 -840 Descending Washington Center
01:54PM 39.3567 -75.9914 43° Northeast 389 448 27,000  Level Washington Center
01:55PM 39.4422 -75.8897 43° Northeast 394 453 27,000  Level Washington Center
01:56PM 39.5258 -75.7933 42° Northeast 400 460 27,000 -240 Level Washington Center
01:57PM 39.6094 -75.6939 42° Northeast 400 460 26,600 -1,020 Descending Washington Center
01:58PM 39.6906 -75.5942 43° Northeast 395 455 25,000 -1,560 Descending Washington Center
01:59PM 39.7739 -75.4969 42° Northeast 395 455 23,500 -1,560 Descending Washington Center
02:00PM 39.8614 -75.3889 43° Northeast 395 455 22,000 -1,740 Descending Washington Center
02:01PM 39.9403 -75.2939 43° Northeast 395 455 20,100 -2,760 Descending Washington Center
02:02PM 40.0172 -75.2042 42° Northeast 389 448 16,500 -3,480 Descending Washington Center
02:03PM 40.0833 -75.1197 44° Northeast 363 418 13,200 -2,940 Descending Washington Center
02:04PM 40.1414 -75.0486 43° Northeast 325 374 10,600 -1,680 Descending Washington Center
02:05PM 40.2167 -74.9500 45° Northeast 274 315 9,300 -1,020 Descending New York TRACON
02:06PM 40.2667 -74.8833 45° Northeast 286 329 8,200 -720 Descending New York TRACON
02:07PM 40.3333 -74.8167 37° Northeast 275 316 7,900 -900 Descending New York TRACON
02:08PM 40.4000 -74.7667 30° Northeast 278 320 6,400 -1,500 Descending New York TRACON
02:09PM 40.4500 -74.7000 45° Northeast 266 306 5,000 -1,320 Descending New York TRACON
02:10PM 40.5167 -74.6500 30° Northeast 264 304 3,800 -1,020 Descending New York TRACON
02:11PM 40.5667 -74.5833 45° Northeast 249 287 3,000 -420 Descending New York TRACON
02:12PM 40.6333 -74.5667 11° North 252 290 3,000  Level New York TRACON
02:13PM 40.6833 -74.5333 27° Northeast 198 228 3,000  Level New York TRACON
02:14PM 40.7333 -74.5000 27° Northeast 206 237 3,000 -480 Level New York TRACON
02:15PM 40.7167 -74.4333 108° East 201 231 2,100 -540 Descending New York TRACON
02:16PM 40.7167 -74.3667 90° East 187 215 2,000 -120 Descending New York TRACON
02:17PM 40.7167 -74.3000 90° East 163 188 1,900 -540 Descending New York TRACON
02:18PM 40.7000 -74.2500 114° Southeast 155 178 1,000 -840 Descending New York TRACON
02:19PM 40.7000 -74.2000 90° East 117 135 300 -720 Descending New York TRACON